createdAt,value
2019-05-29T00:01:12.128Z,2.87
2019-05-29T00:05:10.157Z,3.20
2019-05-29T00:09:12.373Z,7.40
2019-05-29T00:13:14.534Z,7.72
2019-05-29T00:17:16.331Z,6.62
2019-05-29T00:21:18.681Z,9.68
2019-05-29T00:25:20.483Z,6.80
2019-05-29T00:29:22.231Z,5.75
2019-05-29T00:33:24.077Z,4.87
2019-05-29T00:37:26.187Z,9.60
2019-05-29T00:41:28.230Z,7.92
2019-05-29T00:45:30.129Z,6.20
2019-05-29T00:49:32.338Z,8.70
2019-05-29T00:53:34.682Z,4.87
2019-05-29T00:57:37.147Z,6.62
2019-05-29T01:01:38.898Z,8.43
2019-05-29T01:05:40.991Z,5.45
2019-05-29T01:09:42.814Z,6.22
2019-05-29T01:13:44.594Z,7.35
2019-05-29T01:17:46.318Z,7.80
2019-05-29T01:21:48.042Z,7.78
2019-05-29T01:25:49.778Z,8.48
2019-05-29T01:29:51.536Z,4.85
2019-05-29T01:33:56.373Z,7.65
2019-05-29T01:37:58.414Z,5.47
2019-05-29T01:42:00.798Z,5.50
2019-05-29T01:46:02.607Z,8.50
2019-05-29T01:50:05.250Z,6.42
2019-05-29T01:54:07.210Z,6.87
2019-05-29T01:58:09.410Z,8.90
2019-05-29T02:02:11.159Z,11.90
2019-05-29T02:06:13.314Z,7.90
2019-05-29T02:10:16.000Z,8.90
2019-05-29T02:14:18.477Z,12.93
2019-05-29T02:18:20.810Z,10.78
2019-05-29T02:22:23.091Z,9.23
2019-05-29T02:26:25.103Z,9.38
2019-05-29T02:30:30.359Z,15.35
2019-05-29T02:34:30.592Z,10.85
2019-05-29T02:38:32.362Z,10.80
2019-05-29T02:42:34.614Z,8.58
2019-05-29T02:46:36.572Z,10.08
2019-05-29T02:50:38.506Z,10.58
2019-05-29T02:54:40.255Z,11.28
2019-05-29T02:58:42.022Z,10.50
2019-05-29T03:02:43.782Z,11.50
2019-05-29T03:06:46.119Z,15.25
2019-05-29T03:10:47.851Z,11.40
2019-05-29T03:14:50.011Z,18.20
2019-05-29T03:18:51.733Z,13.25
2019-05-29T03:22:53.461Z,10.05
2019-05-29T03:26:55.220Z,9.65
2019-05-29T03:30:57.481Z,10.45
2019-05-29T03:34:59.397Z,14.03
2019-05-29T03:39:01.484Z,9.35
2019-05-29T03:43:03.688Z,10.80
2019-05-29T03:47:05.499Z,10.65
2019-05-29T03:51:07.249Z,10.10
2019-05-29T03:55:09.389Z,8.55
2019-05-29T03:59:11.372Z,6.15
2019-05-29T04:03:13.491Z,11.68
2019-05-29T04:07:15.261Z,7.87
2019-05-29T04:11:16.979Z,6.83
2019-05-29T04:15:19.002Z,4.40
2019-05-29T04:19:22.489Z,5.83
2019-05-29T04:23:27.902Z,5.62
2019-05-29T04:27:32.058Z,5.67
2019-05-29T04:31:34.471Z,7.03
2019-05-29T04:35:36.973Z,8.73
2019-05-29T04:39:39.421Z,4.58
2019-05-29T04:43:41.243Z,3.12
2019-05-29T04:47:43.334Z,5.20
2019-05-29T04:51:45.442Z,4.03
2019-05-29T04:55:47.272Z,4.12
2019-05-29T04:59:49.148Z,7.25
2019-05-29T05:03:51.468Z,8.88
2019-05-29T05:07:53.253Z,6.37
2019-05-29T05:11:55.052Z,2.92
2019-05-29T05:15:59.297Z,4.78
2019-05-29T05:20:01.124Z,1.42
2019-05-29T05:24:03.353Z,3.05
2019-05-29T05:28:05.080Z,11.12
2019-05-29T05:32:06.804Z,1.47
2019-05-29T05:36:08.898Z,2.25
2019-05-29T05:40:10.694Z,5.20
2019-05-29T05:44:12.814Z,5.40
2019-05-29T05:48:14.867Z,6.42
2019-05-29T05:52:16.897Z,3.65
2019-05-29T05:56:19.344Z,7.10
2019-05-29T06:00:31.969Z,3.42
2019-05-29T06:04:33.899Z,2.85
2019-05-29T06:09:03.969Z,3.95
2019-05-29T06:13:05.517Z,5.35
2019-05-29T06:17:07.998Z,3.42
2019-05-29T06:21:10.199Z,3.72
2019-05-29T06:25:12.457Z,7.00
2019-05-29T06:29:14.232Z,5.72
2019-05-29T06:33:16.452Z,1.20
2019-05-29T06:37:18.487Z,1.02
2019-05-29T06:41:20.953Z,2.77
2019-05-29T06:45:29.924Z,4.75
2019-05-29T06:49:31.805Z,5.03
2019-05-29T06:53:33.757Z,4.53
2019-05-29T06:57:36.193Z,2.83
2019-05-29T07:01:39.292Z,3.22
2019-05-29T07:05:46.613Z,8.08
2019-05-29T07:09:45.616Z,1.70
2019-05-29T07:13:50.110Z,8.80
2019-05-29T07:17:51.243Z,2.15
2019-05-29T07:21:53.353Z,3.58
2019-05-29T07:25:55.429Z,1.02
2019-05-29T07:29:57.530Z,2.08
2019-05-29T07:33:59.645Z,3.70
2019-05-29T07:38:02.165Z,0.95
2019-05-29T07:42:05.472Z,1.00
2019-05-29T07:46:07.714Z,1.15
2019-05-29T07:50:10.110Z,3.10
2019-05-29T07:54:12.502Z,1.20
2019-05-29T07:58:14.342Z,1.50
2019-05-29T08:02:16.577Z,2.72
2019-05-29T08:06:18.748Z,0.90
2019-05-29T08:10:21.216Z,0.60
2019-05-29T08:14:23.034Z,6.37
2019-05-29T08:18:24.825Z,2.17
2019-05-29T08:22:34.142Z,1.00
2019-05-29T08:26:30.280Z,3.05
2019-05-29T08:30:32.526Z,2.83
2019-05-29T08:34:34.309Z,2.45
2019-05-29T08:38:37.867Z,3.10
2019-05-29T08:42:40.959Z,0.65
2019-05-29T08:46:57.649Z,2.20
2019-05-29T08:50:47.792Z,3.72
2019-05-29T08:54:50.585Z,1.72
2019-05-29T08:58:52.668Z,2.05
2019-05-29T09:02:54.613Z,2.50
2019-05-29T09:06:57.177Z,0.68
2019-05-29T09:10:59.447Z,1.20
2019-05-29T09:15:01.238Z,0.70
2019-05-29T09:19:03.481Z,3.27
2019-05-29T09:23:05.283Z,0.62
2019-05-29T09:27:07.216Z,1.65
2019-05-29T09:31:09.374Z,0.57
2019-05-29T09:35:11.369Z,0.42
2019-05-29T09:39:16.185Z,4.58
2019-05-29T09:43:19.783Z,0.62
2019-05-29T09:47:22.316Z,1.07
2019-05-29T09:51:25.173Z,1.30
2019-05-29T09:55:27.756Z,2.42
2019-05-29T09:59:29.988Z,0.20
2019-05-29T10:03:31.775Z,4.95
2019-05-29T10:07:34.395Z,3.72
2019-05-29T10:11:36.256Z,0.40
2019-05-29T10:15:38.084Z,0.93
2019-05-29T10:19:40.406Z,1.47
2019-05-29T10:23:42.554Z,3.27
2019-05-29T10:27:44.586Z,0.65
2019-05-29T10:31:47.899Z,2.92
2019-05-29T10:35:53.838Z,1.05
2019-05-29T10:39:54.818Z,1.05
2019-05-29T10:43:56.780Z,0.75
2019-05-29T10:47:58.982Z,1.95
2019-05-29T10:52:14.402Z,2.20
2019-05-29T10:56:05.366Z,0.50
2019-05-29T11:00:07.694Z,1.92
2019-05-29T11:04:09.841Z,3.12
2019-05-29T11:08:12.025Z,0.72
2019-05-29T11:12:14.059Z,0.80
2019-05-29T11:16:16.482Z,2.33
2019-05-29T11:20:20.246Z,5.65
2019-05-29T11:24:22.072Z,3.52
2019-05-29T11:28:23.873Z,1.45
2019-05-29T11:32:25.969Z,0.20
2019-05-29T11:36:28.070Z,0.57
2019-05-29T11:40:30.345Z,0.55
2019-05-29T11:44:32.629Z,4.78
2019-05-29T11:48:34.598Z,2.35
2019-05-29T11:52:43.086Z,1.55
2019-05-29T11:56:40.666Z,0.78
2019-05-29T12:00:43.139Z,0.45
2019-05-29T12:04:45.324Z,1.67
2019-05-29T12:08:47.169Z,0.28
2019-05-29T12:12:49.320Z,2.20
2019-05-29T12:16:51.751Z,0.65
2019-05-29T12:20:53.977Z,2.83
2019-05-29T12:24:56.547Z,0.10
2019-05-29T12:29:04.768Z,0.17
2019-05-29T12:33:03.282Z,1.85
2019-05-29T12:37:06.145Z,0.10
2019-05-29T12:41:09.064Z,0.20
2019-05-29T12:45:11.786Z,2.50
2019-05-29T12:49:13.704Z,0.72
2019-05-29T12:53:29.763Z,0.30
2019-05-29T12:57:23.520Z,0.10
2019-05-29T13:01:25.604Z,1.85
2019-05-29T13:05:27.828Z,2.08
2019-05-29T13:09:29.860Z,0.95
2019-05-29T13:13:31.644Z,0.62
2019-05-29T13:17:33.591Z,0.80
2019-05-29T13:21:35.460Z,4.40
2019-05-29T13:25:37.260Z,0.57
2019-05-29T13:29:39.586Z,2.62
2019-05-29T13:33:42.070Z,0.28
2019-05-29T13:37:44.138Z,0.90
2019-05-29T13:41:46.094Z,1.85
2019-05-29T13:45:47.833Z,0.50
2019-05-29T13:49:50.197Z,1.47
2019-05-29T13:54:02.435Z,1.05
2019-05-29T13:57:57.604Z,3.80
2019-05-29T14:02:00.288Z,1.30
2019-05-29T14:06:03.706Z,1.72
2019-05-29T14:10:07.750Z,0.70
2019-05-29T14:14:13.002Z,0.42
2019-05-29T14:18:14.740Z,2.35
2019-05-29T14:22:16.576Z,1.17
2019-05-29T14:26:19.046Z,0.60
2019-05-29T14:30:21.781Z,0.40
2019-05-29T14:34:23.599Z,0.45
2019-05-29T14:38:25.372Z,1.67
2019-05-29T14:42:27.694Z,1.98
2019-05-29T14:46:29.605Z,1.27
2019-05-29T14:50:31.757Z,0.53
2019-05-29T14:54:41.603Z,2.02
2019-05-29T14:58:37.517Z,1.45
2019-05-29T15:02:39.622Z,1.22
2019-05-29T15:06:41.726Z,1.40
2019-05-29T15:10:43.885Z,2.25
2019-05-29T15:14:45.612Z,3.20
2019-05-29T15:18:47.715Z,5.40
2019-05-29T15:22:49.909Z,3.27
2019-05-29T15:26:51.657Z,3.08
2019-05-29T15:30:53.482Z,1.47
2019-05-29T15:34:55.615Z,2.30
2019-05-29T15:38:57.471Z,2.05
2019-05-29T15:42:59.847Z,1.45
2019-05-29T15:47:02.129Z,1.45
2019-05-29T15:51:04.729Z,3.42
2019-05-29T15:55:23.529Z,1.65
2019-05-29T15:59:12.597Z,3.67
2019-05-29T16:03:15.727Z,2.37
2019-05-29T16:07:18.243Z,3.92
2019-05-29T16:11:20.165Z,3.62
2019-05-29T16:15:22.229Z,3.25
2019-05-29T16:19:24.314Z,5.00
2019-05-29T16:23:35.132Z,2.15
2019-05-29T16:27:31.097Z,3.77
2019-05-29T16:31:33.433Z,2.37
2019-05-29T16:35:37.530Z,3.92
2019-05-29T16:39:39.177Z,0.78
2019-05-29T16:43:41.429Z,1.15
2019-05-29T16:47:43.295Z,1.50
2019-05-29T16:51:45.428Z,1.80
2019-05-29T16:55:53.726Z,3.95
2019-05-29T16:59:51.097Z,3.52
2019-05-29T17:03:53.329Z,5.12
2019-05-29T17:07:55.169Z,1.67
2019-05-29T17:11:57.736Z,2.90
2019-05-29T17:15:59.958Z,2.27
2019-05-29T17:20:02.120Z,5.30
2019-05-29T17:24:04.380Z,0.98
2019-05-29T17:28:06.840Z,1.87
2019-05-29T17:32:08.638Z,3.75
2019-05-29T17:36:10.411Z,0.80
2019-05-29T17:40:12.725Z,1.20
2019-05-29T17:44:15.809Z,2.00
2019-05-29T17:48:17.755Z,5.55
2019-05-29T17:52:20.087Z,3.52
2019-05-29T17:56:33.643Z,2.45
2019-05-29T18:00:26.690Z,2.10
2019-05-29T18:04:28.642Z,9.10
2019-05-29T18:08:31.104Z,3.20
2019-05-29T18:12:33.221Z,2.20
2019-05-29T18:16:36.842Z,2.80
2019-05-29T18:20:38.810Z,2.02
2019-05-29T18:24:40.821Z,2.87
2019-05-29T18:28:43.705Z,2.47
2019-05-29T18:32:46.229Z,1.72
2019-05-29T18:36:48.005Z,0.70
2019-05-29T18:40:50.194Z,0.98
2019-05-29T18:44:52.230Z,1.22
2019-05-29T18:48:54.181Z,2.08
2019-05-29T18:52:56.871Z,3.90
2019-05-29T18:57:14.366Z,1.40
2019-05-29T19:01:03.847Z,2.45
2019-05-29T19:05:06.791Z,6.05
2019-05-29T19:09:08.761Z,0.68
2019-05-29T19:13:10.840Z,2.55
2019-05-29T19:17:12.747Z,3.85
2019-05-29T19:21:14.819Z,4.03
2019-05-29T19:25:16.621Z,1.15
2019-05-29T19:29:18.673Z,2.80
2019-05-29T19:33:20.807Z,3.65
2019-05-29T19:37:23.745Z,3.80
2019-05-29T19:41:25.806Z,3.77
2019-05-29T19:45:28.575Z,2.12
2019-05-29T19:49:30.935Z,1.00
2019-05-29T19:53:33.495Z,5.58
2019-05-29T19:57:52.460Z,12.50
2019-05-29T20:01:40.572Z,2.80
2019-05-29T20:05:42.844Z,2.02
2019-05-29T20:09:45.052Z,2.25
2019-05-29T20:13:47.096Z,3.15
2019-05-29T20:17:49.274Z,2.92
2019-05-29T20:21:51.509Z,6.60
2019-05-29T20:25:53.618Z,4.15
2019-05-29T20:29:55.626Z,4.33
2019-05-29T20:33:57.554Z,6.15
2019-05-29T20:37:59.672Z,2.33
2019-05-29T20:42:02.248Z,3.42
2019-05-29T20:46:04.057Z,2.67
2019-05-29T20:50:06.509Z,1.32
2019-05-29T20:54:11.928Z,1.15
2019-05-29T20:58:24.207Z,4.05
2019-05-29T21:02:18.550Z,4.58
2019-05-29T21:06:20.539Z,2.02
2019-05-29T21:10:22.442Z,1.92
2019-05-29T21:14:24.496Z,2.80
2019-05-29T21:18:26.792Z,1.85
2019-05-29T21:22:28.588Z,2.45
2019-05-29T21:26:30.545Z,2.75
2019-05-29T21:30:32.830Z,4.65
2019-05-29T21:34:35.716Z,1.42
2019-05-29T21:38:38.068Z,2.58
2019-05-29T21:42:40.583Z,3.42
2019-05-29T21:46:43.059Z,14.53
2019-05-29T21:50:45.475Z,10.72
2019-05-29T21:54:48.184Z,10.78
2019-05-29T21:59:03.134Z,6.97
2019-05-29T22:02:53.974Z,3.12
2019-05-29T22:06:55.812Z,2.80
2019-05-29T22:10:58.153Z,2.40
2019-05-29T22:15:01.494Z,1.45
2019-05-29T22:19:04.319Z,1.40
2019-05-29T22:23:07.856Z,3.45
2019-05-29T22:27:10.913Z,5.25
2019-05-29T22:31:13.042Z,2.77
2019-05-29T22:35:15.701Z,1.80
2019-05-29T22:39:18.718Z,1.40
2019-05-29T22:43:20.938Z,2.55
2019-05-29T22:47:23.935Z,3.67
2019-05-29T22:54:59.977Z,3.75
2019-05-29T22:59:02.324Z,2.77
2019-05-29T23:03:04.371Z,2.40
2019-05-29T23:07:06.126Z,2.90
2019-05-29T23:11:08.375Z,3.25
2019-05-29T23:15:10.125Z,2.75
2019-05-29T23:19:12.603Z,3.00
2019-05-29T23:23:15.158Z,1.85
2019-05-29T23:27:17.307Z,2.08
2019-05-29T23:31:19.590Z,2.30
2019-05-29T23:35:21.418Z,2.25
2019-05-29T23:39:23.164Z,2.12
2019-05-29T23:43:24.888Z,1.32
2019-05-29T23:47:26.769Z,2.05
2019-05-29T23:51:28.829Z,2.25
2019-05-29T23:55:30.625Z,1.98
2019-05-29T23:59:32.685Z,2.30
